sensor_id;sensor_type;location;lat;lon;timestamp;P1;durP1;ratioP1;P2;durP2;ratioP2
11539;SDS011;5826;54.756;9.192;2023-05-02T00:02:02;7.07;;;2.47;;
11539;SDS011;5826;54.756;9.192;2023-05-02T00:04:28;9.40;;;2.60;;
11539;SDS011;5826;54.756;9.192;2023-05-02T00:06:53;8.77;;;2.65;;
11539;SDS011;5826;54.756;9.192;2023-05-02T00:09:19;10.60;;;2.90;;
11539;SDS011;5826;54.756;9.192;2023-05-02T00:11:45;7.95;;;2.67;;
11539;SDS011;5826;54.756;9.192;2023-05-02T00:14:10;7.88;;;2.83;;
11539;SDS011;5826;54.756;9.192;2023-05-02T00:16:36;7.80;;;2.72;;
11539;SDS011;5826;54.756;9.192;2023-05-02T00:19:01;8.13;;;2.60;;
11539;SDS011;5826;54.756;9.192;2023-05-02T00:21:27;10.48;;;3.00;;
11539;SDS011;5826;54.756;9.192;2023-05-02T00:23:56;7.65;;;2.85;;
11539;SDS011;5826;54.756;9.192;2023-05-02T00:26:22;8.35;;;2.42;;
11539;SDS011;5826;54.756;9.192;2023-05-02T00:28:48;6.68;;;2.63;;
11539;SDS011;5826;54.756;9.192;2023-05-02T00:31:13;5.72;;;2.42;;
11539;SDS011;5826;54.756;9.192;2023-05-02T00:33:39;6.32;;;2.15;;
11539;SDS011;5826;54.756;9.192;2023-05-02T00:36:12;10.05;;;3.15;;
11539;SDS011;5826;54.756;9.192;2023-05-02T00:38:38;9.13;;;3.00;;
11539;SDS011;5826;54.756;9.192;2023-05-02T00:41:04;9.07;;;3.03;;
11539;SDS011;5826;54.756;9.192;2023-05-02T00:43:30;12.50;;;3.25;;
11539;SDS011;5826;54.756;9.192;2023-05-02T00:45:56;9.48;;;3.15;;
11539;SDS011;5826;54.756;9.192;2023-05-02T00:48:22;9.75;;;2.97;;
11539;SDS011;5826;54.756;9.192;2023-05-02T00:50:49;11.63;;;3.35;;
11539;SDS011;5826;54.756;9.192;2023-05-02T00:53:15;7.13;;;2.85;;
11539;SDS011;5826;54.756;9.192;2023-05-02T00:55:42;13.38;;;3.30;;
11539;SDS011;5826;54.756;9.192;2023-05-02T00:58:09;5.78;;;2.30;;
11539;SDS011;5826;54.756;9.192;2023-05-02T01:01:01;6.82;;;2.40;;
11539;SDS011;5826;54.756;9.192;2023-05-02T01:14:28;11.18;;;2.90;;
11539;SDS011;5826;54.756;9.192;2023-05-02T01:16:57;5.95;;;2.60;;
11539;SDS011;5826;54.756;9.192;2023-05-02T01:19:28;9.98;;;3.33;;
11539;SDS011;5826;54.756;9.192;2023-05-02T01:22:05;9.85;;;3.08;;
11539;SDS011;5826;54.756;9.192;2023-05-02T01:30:22;7.10;;;2.65;;
11539;SDS011;5826;54.756;9.192;2023-05-02T01:32:50;8.68;;;3.13;;
11539;SDS011;5826;54.756;9.192;2023-05-02T01:35:17;7.50;;;2.60;;
11539;SDS011;5826;54.756;9.192;2023-05-02T01:37:45;8.85;;;2.60;;
11539;SDS011;5826;54.756;9.192;2023-05-02T01:40:13;7.40;;;2.13;;
11539;SDS011;5826;54.756;9.192;2023-05-02T01:42:41;8.90;;;2.75;;
11539;SDS011;5826;54.756;9.192;2023-05-02T01:45:10;10.85;;;3.08;;
11539;SDS011;5826;54.756;9.192;2023-05-02T01:47:36;5.18;;;2.55;;
11539;SDS011;5826;54.756;9.192;2023-05-02T01:50:03;8.57;;;2.83;;
11539;SDS011;5826;54.756;9.192;2023-05-02T01:52:31;9.40;;;2.75;;
11539;SDS011;5826;54.756;9.192;2023-05-02T01:54:58;6.53;;;2.10;;
11539;SDS011;5826;54.756;9.192;2023-05-02T01:57:25;6.53;;;2.00;;
11539;SDS011;5826;54.756;9.192;2023-05-02T01:59:51;6.73;;;2.50;;
11539;SDS011;5826;54.756;9.192;2023-05-02T02:02:20;5.93;;;2.30;;
11539;SDS011;5826;54.756;9.192;2023-05-02T02:04:48;6.45;;;2.20;;
11539;SDS011;5826;54.756;9.192;2023-05-02T02:07:15;8.43;;;2.60;;
11539;SDS011;5826;54.756;9.192;2023-05-02T02:09:41;7.73;;;2.30;;
11539;SDS011;5826;54.756;9.192;2023-05-02T02:12:23;7.72;;;2.17;;
11539;SDS011;5826;54.756;9.192;2023-05-02T02:14:56;12.13;;;2.50;;
11539;SDS011;5826;54.756;9.192;2023-05-02T02:17:36;9.55;;;2.47;;
11539;SDS011;5826;54.756;9.192;2023-05-02T02:20:04;5.30;;;2.10;;
11539;SDS011;5826;54.756;9.192;2023-05-02T02:22:33;6.23;;;2.03;;
11539;SDS011;5826;54.756;9.192;2023-05-02T02:25:02;6.90;;;2.10;;
11539;SDS011;5826;54.756;9.192;2023-05-02T02:27:30;7.47;;;2.53;;
11539;SDS011;5826;54.756;9.192;2023-05-02T02:29:56;5.33;;;1.70;;
11539;SDS011;5826;54.756;9.192;2023-05-02T02:32:22;6.50;;;2.30;;
11539;SDS011;5826;54.756;9.192;2023-05-02T02:34:48;7.33;;;1.70;;
11539;SDS011;5826;54.756;9.192;2023-05-02T02:37:18;4.60;;;1.63;;
11539;SDS011;5826;54.756;9.192;2023-05-02T02:42:36;7.30;;;1.98;;
11539;SDS011;5826;54.756;9.192;2023-05-02T02:45:22;7.00;;;1.90;;
11539;SDS011;5826;54.756;9.192;2023-05-02T02:51:12;3.60;;;1.63;;
11539;SDS011;5826;54.756;9.192;2023-05-02T02:53:45;7.43;;;1.80;;
11539;SDS011;5826;54.756;9.192;2023-05-02T02:56:35;5.07;;;1.90;;
11539;SDS011;5826;54.756;9.192;2023-05-02T02:59:05;5.40;;;1.80;;
11539;SDS011;5826;54.756;9.192;2023-05-02T03:01:42;5.03;;;2.00;;
11539;SDS011;5826;54.756;9.192;2023-05-02T03:04:10;5.80;;;1.80;;
11539;SDS011;5826;54.756;9.192;2023-05-02T03:06:39;6.93;;;1.63;;
11539;SDS011;5826;54.756;9.192;2023-05-02T03:09:06;3.40;;;1.70;;
11539;SDS011;5826;54.756;9.192;2023-05-02T03:11:41;3.67;;;1.60;;
11539;SDS011;5826;54.756;9.192;2023-05-02T03:14:07;3.63;;;1.50;;
11539;SDS011;5826;54.756;9.192;2023-05-02T03:16:34;3.87;;;1.50;;
11539;SDS011;5826;54.756;9.192;2023-05-02T03:19:01;4.87;;;1.57;;
11539;SDS011;5826;54.756;9.192;2023-05-02T03:21:27;3.95;;;1.90;;
11539;SDS011;5826;54.756;9.192;2023-05-02T03:23:55;7.60;;;2.40;;
11539;SDS011;5826;54.756;9.192;2023-05-02T03:26:24;6.60;;;1.73;;
11539;SDS011;5826;54.756;9.192;2023-05-02T03:28:50;4.43;;;1.90;;
11539;SDS011;5826;54.756;9.192;2023-05-02T03:31:15;7.57;;;2.35;;
11539;SDS011;5826;54.756;9.192;2023-05-02T03:33:41;8.35;;;2.00;;
11539;SDS011;5826;54.756;9.192;2023-05-02T03:36:06;4.00;;;1.73;;
11539;SDS011;5826;54.756;9.192;2023-05-02T03:38:32;4.18;;;1.83;;
11539;SDS011;5826;54.756;9.192;2023-05-02T03:40:58;6.43;;;1.80;;
11539;SDS011;5826;54.756;9.192;2023-05-02T03:43:23;6.13;;;1.77;;
11539;SDS011;5826;54.756;9.192;2023-05-02T03:45:49;2.97;;;1.70;;
11539;SDS011;5826;54.756;9.192;2023-05-02T03:48:15;5.30;;;1.77;;
11539;SDS011;5826;54.756;9.192;2023-05-02T03:50:40;4.05;;;1.60;;
11539;SDS011;5826;54.756;9.192;2023-05-02T03:53:06;4.28;;;1.85;;
11539;SDS011;5826;54.756;9.192;2023-05-02T03:55:37;4.77;;;1.50;;
11539;SDS011;5826;54.756;9.192;2023-05-02T03:58:04;5.00;;;1.70;;
11539;SDS011;5826;54.756;9.192;2023-05-02T04:00:30;4.47;;;2.13;;
11539;SDS011;5826;54.756;9.192;2023-05-02T04:02:56;4.43;;;1.43;;
11539;SDS011;5826;54.756;9.192;2023-05-02T04:05:21;4.85;;;1.52;;
11539;SDS011;5826;54.756;9.192;2023-05-02T04:07:46;3.57;;;1.53;;
11539;SDS011;5826;54.756;9.192;2023-05-02T04:10:12;6.17;;;1.63;;
11539;SDS011;5826;54.756;9.192;2023-05-02T04:12:40;4.40;;;1.87;;
11539;SDS011;5826;54.756;9.192;2023-05-02T04:15:07;2.47;;;1.63;;
11539;SDS011;5826;54.756;9.192;2023-05-02T04:17:33;5.77;;;1.60;;
11539;SDS011;5826;54.756;9.192;2023-05-02T04:19:59;4.77;;;1.40;;
11539;SDS011;5826;54.756;9.192;2023-05-02T04:22:24;4.07;;;1.40;;
11539;SDS011;5826;54.756;9.192;2023-05-02T04:24:50;4.57;;;1.70;;
11539;SDS011;5826;54.756;9.192;2023-05-02T04:27:15;2.87;;;1.57;;
11539;SDS011;5826;54.756;9.192;2023-05-02T04:29:41;6.57;;;1.83;;
11539;SDS011;5826;54.756;9.192;2023-05-02T04:32:06;4.63;;;1.70;;
11539;SDS011;5826;54.756;9.192;2023-05-02T04:34:32;4.77;;;1.67;;
11539;SDS011;5826;54.756;9.192;2023-05-02T04:36:57;3.13;;;1.30;;
11539;SDS011;5826;54.756;9.192;2023-05-02T04:39:23;3.20;;;1.47;;
11539;SDS011;5826;54.756;9.192;2023-05-02T04:41:48;6.13;;;1.77;;
11539;SDS011;5826;54.756;9.192;2023-05-02T04:44:14;4.27;;;1.60;;
11539;SDS011;5826;54.756;9.192;2023-05-02T04:46:39;2.83;;;1.40;;
11539;SDS011;5826;54.756;9.192;2023-05-02T04:49:05;5.67;;;1.80;;
11539;SDS011;5826;54.756;9.192;2023-05-02T04:51:30;3.77;;;1.37;;
11539;SDS011;5826;54.756;9.192;2023-05-02T04:53:56;4.40;;;1.40;;
11539;SDS011;5826;54.756;9.192;2023-05-02T04:56:22;3.03;;;1.50;;
11539;SDS011;5826;54.756;9.192;2023-05-02T04:58:47;4.37;;;1.80;;
11539;SDS011;5826;54.756;9.192;2023-05-02T05:01:12;4.23;;;1.50;;
11539;SDS011;5826;54.756;9.192;2023-05-02T05:03:38;3.63;;;1.37;;
11539;SDS011;5826;54.756;9.192;2023-05-02T05:06:03;6.00;;;1.37;;
11539;SDS011;5826;54.756;9.192;2023-05-02T05:08:29;5.07;;;1.60;;
11539;SDS011;5826;54.756;9.192;2023-05-02T05:10:55;5.13;;;1.83;;
11539;SDS011;5826;54.756;9.192;2023-05-02T05:13:20;4.80;;;1.70;;
11539;SDS011;5826;54.756;9.192;2023-05-02T05:15:46;4.33;;;1.37;;
11539;SDS011;5826;54.756;9.192;2023-05-02T05:18:11;3.53;;;1.23;;
11539;SDS011;5826;54.756;9.192;2023-05-02T05:20:37;4.10;;;1.60;;
11539;SDS011;5826;54.756;9.192;2023-05-02T05:23:03;5.03;;;1.70;;
11539;SDS011;5826;54.756;9.192;2023-05-02T05:25:28;4.80;;;1.90;;
11539;SDS011;5826;54.756;9.192;2023-05-02T05:27:53;4.80;;;1.73;;
11539;SDS011;5826;54.756;9.192;2023-05-02T05:30:20;5.57;;;1.50;;
11539;SDS011;5826;54.756;9.192;2023-05-02T05:32:46;2.87;;;1.27;;
11539;SDS011;5826;54.756;9.192;2023-05-02T05:35:11;5.37;;;1.70;;
11539;SDS011;5826;54.756;9.192;2023-05-02T05:37:37;2.83;;;1.30;;
11539;SDS011;5826;54.756;9.192;2023-05-02T05:40:04;3.23;;;1.27;;
11539;SDS011;5826;54.756;9.192;2023-05-02T05:42:33;4.63;;;1.37;;
11539;SDS011;5826;54.756;9.192;2023-05-02T05:44:58;5.13;;;1.30;;
11539;SDS011;5826;54.756;9.192;2023-05-02T05:47:24;2.93;;;1.40;;
11539;SDS011;5826;54.756;9.192;2023-05-02T05:49:53;3.90;;;1.33;;
11539;SDS011;5826;54.756;9.192;2023-05-02T05:52:19;2.50;;;1.23;;
11539;SDS011;5826;54.756;9.192;2023-05-02T05:54:44;4.23;;;1.40;;
11539;SDS011;5826;54.756;9.192;2023-05-02T05:57:10;4.17;;;1.60;;
11539;SDS011;5826;54.756;9.192;2023-05-02T05:59:36;2.70;;;1.30;;
11539;SDS011;5826;54.756;9.192;2023-05-02T06:02:01;4.83;;;1.40;;
11539;SDS011;5826;54.756;9.192;2023-05-02T06:04:27;4.63;;;1.43;;
11539;SDS011;5826;54.756;9.192;2023-05-02T06:06:53;2.60;;;1.23;;
11539;SDS011;5826;54.756;9.192;2023-05-02T06:09:19;2.83;;;1.30;;
11539;SDS011;5826;54.756;9.192;2023-05-02T06:11:44;4.00;;;1.70;;
11539;SDS011;5826;54.756;9.192;2023-05-02T06:14:10;3.80;;;1.37;;
11539;SDS011;5826;54.756;9.192;2023-05-02T06:16:35;5.03;;;1.60;;
11539;SDS011;5826;54.756;9.192;2023-05-02T06:19:01;2.70;;;1.30;;
11539;SDS011;5826;54.756;9.192;2023-05-02T06:21:26;5.27;;;1.40;;
11539;SDS011;5826;54.756;9.192;2023-05-02T06:23:52;4.23;;;1.60;;
11539;SDS011;5826;54.756;9.192;2023-05-02T06:26:17;3.10;;;1.43;;
11539;SDS011;5826;54.756;9.192;2023-05-02T06:28:43;2.30;;;1.27;;
11539;SDS011;5826;54.756;9.192;2023-05-02T06:31:09;2.17;;;1.10;;
11539;SDS011;5826;54.756;9.192;2023-05-02T06:33:34;4.90;;;1.70;;
11539;SDS011;5826;54.756;9.192;2023-05-02T06:36:00;3.90;;;1.47;;
11539;SDS011;5826;54.756;9.192;2023-05-02T06:38:26;4.60;;;1.37;;
11539;SDS011;5826;54.756;9.192;2023-05-02T06:40:52;3.53;;;1.60;;
11539;SDS011;5826;54.756;9.192;2023-05-02T06:43:17;5.40;;;1.80;;
11539;SDS011;5826;54.756;9.192;2023-05-02T06:45:43;3.87;;;1.37;;
11539;SDS011;5826;54.756;9.192;2023-05-02T06:48:09;2.83;;;1.30;;
11539;SDS011;5826;54.756;9.192;2023-05-02T06:50:35;2.73;;;1.50;;
11539;SDS011;5826;54.756;9.192;2023-05-02T06:53:01;4.67;;;1.60;;
11539;SDS011;5826;54.756;9.192;2023-05-02T06:55:28;6.40;;;1.88;;
11539;SDS011;5826;54.756;9.192;2023-05-02T06:57:53;3.53;;;1.63;;
11539;SDS011;5826;54.756;9.192;2023-05-02T07:00:19;5.68;;;2.17;;
11539;SDS011;5826;54.756;9.192;2023-05-02T07:02:46;5.90;;;1.70;;
11539;SDS011;5826;54.756;9.192;2023-05-02T07:05:12;2.83;;;1.17;;
11539;SDS011;5826;54.756;9.192;2023-05-02T07:07:41;5.73;;;2.00;;
11539;SDS011;5826;54.756;9.192;2023-05-02T07:10:07;5.03;;;1.63;;
11539;SDS011;5826;54.756;9.192;2023-05-02T07:12:33;7.40;;;1.92;;
11539;SDS011;5826;54.756;9.192;2023-05-02T07:14:59;3.53;;;1.80;;
11539;SDS011;5826;54.756;9.192;2023-05-02T07:17:25;4.63;;;1.58;;
11539;SDS011;5826;54.756;9.192;2023-05-02T07:19:51;4.85;;;1.70;;
11539;SDS011;5826;54.756;9.192;2023-05-02T07:22:17;4.55;;;1.52;;
11539;SDS011;5826;54.756;9.192;2023-05-02T07:24:42;6.37;;;1.83;;
11539;SDS011;5826;54.756;9.192;2023-05-02T07:27:08;5.53;;;1.75;;
11539;SDS011;5826;54.756;9.192;2023-05-02T07:29:35;5.25;;;1.70;;
11539;SDS011;5826;54.756;9.192;2023-05-02T07:32:01;3.40;;;1.67;;
11539;SDS011;5826;54.756;9.192;2023-05-02T07:34:27;5.07;;;1.40;;
11539;SDS011;5826;54.756;9.192;2023-05-02T07:36:52;4.60;;;1.77;;
11539;SDS011;5826;54.756;9.192;2023-05-02T07:39:18;4.05;;;1.88;;
11539;SDS011;5826;54.756;9.192;2023-05-02T07:41:43;3.20;;;1.57;;
11539;SDS011;5826;54.756;9.192;2023-05-02T07:44:10;6.65;;;1.90;;
11539;SDS011;5826;54.756;9.192;2023-05-02T07:46:35;4.03;;;1.50;;
11539;SDS011;5826;54.756;9.192;2023-05-02T07:49:01;5.35;;;2.00;;
11539;SDS011;5826;54.756;9.192;2023-05-02T07:51:26;6.55;;;2.03;;
11539;SDS011;5826;54.756;9.192;2023-05-02T07:53:52;4.03;;;1.60;;
11539;SDS011;5826;54.756;9.192;2023-05-02T07:56:19;5.32;;;1.83;;
11539;SDS011;5826;54.756;9.192;2023-05-02T07:58:45;5.03;;;1.98;;
11539;SDS011;5826;54.756;9.192;2023-05-02T08:01:11;3.88;;;1.80;;
11539;SDS011;5826;54.756;9.192;2023-05-02T08:03:36;4.82;;;1.88;;
11539;SDS011;5826;54.756;9.192;2023-05-02T08:06:02;6.32;;;1.75;;
11539;SDS011;5826;54.756;9.192;2023-05-02T08:08:27;4.80;;;1.77;;
11539;SDS011;5826;54.756;9.192;2023-05-02T08:10:53;4.53;;;1.60;;
11539;SDS011;5826;54.756;9.192;2023-05-02T08:13:18;6.03;;;1.90;;
11539;SDS011;5826;54.756;9.192;2023-05-02T08:15:44;2.67;;;1.48;;
11539;SDS011;5826;54.756;9.192;2023-05-02T08:18:10;8.02;;;2.10;;
11539;SDS011;5826;54.756;9.192;2023-05-02T08:20:35;3.65;;;1.60;;
11539;SDS011;5826;54.756;9.192;2023-05-02T08:23:01;3.90;;;1.60;;
11539;SDS011;5826;54.756;9.192;2023-05-02T08:25:26;3.42;;;1.40;;
11539;SDS011;5826;54.756;9.192;2023-05-02T08:27:52;4.85;;;2.03;;
11539;SDS011;5826;54.756;9.192;2023-05-02T08:30:17;3.63;;;1.30;;
11539;SDS011;5826;54.756;9.192;2023-05-02T08:32:44;6.43;;;1.60;;
11539;SDS011;5826;54.756;9.192;2023-05-02T08:35:10;3.95;;;1.65;;
11539;SDS011;5826;54.756;9.192;2023-05-02T08:37:35;4.68;;;1.60;;
11539;SDS011;5826;54.756;9.192;2023-05-02T08:40:01;5.80;;;1.98;;
11539;SDS011;5826;54.756;9.192;2023-05-02T08:42:27;3.72;;;1.77;;
11539;SDS011;5826;54.756;9.192;2023-05-02T08:44:54;5.25;;;1.80;;
11539;SDS011;5826;54.756;9.192;2023-05-02T08:47:21;5.55;;;1.70;;
11539;SDS011;5826;54.756;9.192;2023-05-02T08:49:49;4.05;;;1.88;;
11539;SDS011;5826;54.756;9.192;2023-05-02T08:52:17;4.25;;;1.60;;
11539;SDS011;5826;54.756;9.192;2023-05-02T08:54:44;6.40;;;2.00;;
11539;SDS011;5826;54.756;9.192;2023-05-02T08:57:10;5.05;;;1.88;;
11539;SDS011;5826;54.756;9.192;2023-05-02T08:59:35;6.10;;;2.03;;
11539;SDS011;5826;54.756;9.192;2023-05-02T09:02:08;4.25;;;1.63;;
11539;SDS011;5826;54.756;9.192;2023-05-02T09:04:46;4.53;;;2.00;;
11539;SDS011;5826;54.756;9.192;2023-05-02T09:07:18;3.55;;;1.65;;
11539;SDS011;5826;54.756;9.192;2023-05-02T09:09:43;5.38;;;2.10;;
11539;SDS011;5826;54.756;9.192;2023-05-02T09:12:09;7.65;;;2.20;;
11539;SDS011;5826;54.756;9.192;2023-05-02T09:14:34;4.30;;;1.80;;
11539;SDS011;5826;54.756;9.192;2023-05-02T09:17:00;4.53;;;1.95;;
11539;SDS011;5826;54.756;9.192;2023-05-02T09:19:26;6.53;;;1.95;;
11539;SDS011;5826;54.756;9.192;2023-05-02T09:21:51;3.53;;;1.63;;
11539;SDS011;5826;54.756;9.192;2023-05-02T09:24:24;8.88;;;2.17;;
11539;SDS011;5826;54.756;9.192;2023-05-02T09:26:57;4.65;;;1.77;;
11539;SDS011;5826;54.756;9.192;2023-05-02T09:29:25;4.47;;;1.60;;
11539;SDS011;5826;54.756;9.192;2023-05-02T09:31:52;4.70;;;2.00;;
11539;SDS011;5826;54.756;9.192;2023-05-02T09:34:18;3.78;;;1.70;;
11539;SDS011;5826;54.756;9.192;2023-05-02T09:36:44;4.88;;;1.88;;
11539;SDS011;5826;54.756;9.192;2023-05-02T09:39:19;5.53;;;1.73;;
11539;SDS011;5826;54.756;9.192;2023-05-02T09:41:49;4.15;;;1.70;;
11539;SDS011;5826;54.756;9.192;2023-05-02T09:44:19;3.80;;;1.65;;
11539;SDS011;5826;54.756;9.192;2023-05-02T09:46:50;5.68;;;1.70;;
11539;SDS011;5826;54.756;9.192;2023-05-02T09:49:42;3.30;;;1.67;;
11539;SDS011;5826;54.756;9.192;2023-05-02T09:52:11;4.72;;;1.63;;
11539;SDS011;5826;54.756;9.192;2023-05-02T09:54:38;3.83;;;1.52;;
11539;SDS011;5826;54.756;9.192;2023-05-02T09:57:04;2.72;;;1.35;;
11539;SDS011;5826;54.756;9.192;2023-05-02T09:59:31;2.83;;;1.30;;
11539;SDS011;5826;54.756;9.192;2023-05-02T10:02:00;6.68;;;1.63;;
11539;SDS011;5826;54.756;9.192;2023-05-02T10:04:27;2.78;;;1.30;;
11539;SDS011;5826;54.756;9.192;2023-05-02T10:06:55;5.55;;;1.70;;
11539;SDS011;5826;54.756;9.192;2023-05-02T10:09:21;3.50;;;1.58;;
11539;SDS011;5826;54.756;9.192;2023-05-02T10:11:51;4.53;;;1.60;;
11539;SDS011;5826;54.756;9.192;2023-05-02T10:14:18;5.35;;;1.75;;
11539;SDS011;5826;54.756;9.192;2023-05-02T10:16:59;5.43;;;1.73;;
11539;SDS011;5826;54.756;9.192;2023-05-02T10:19:29;3.30;;;1.38;;
11539;SDS011;5826;54.756;9.192;2023-05-02T10:22:02;5.45;;;1.92;;
11539;SDS011;5826;54.756;9.192;2023-05-02T10:24:29;3.83;;;1.30;;
11539;SDS011;5826;54.756;9.192;2023-05-02T10:26:56;6.32;;;2.00;;
11539;SDS011;5826;54.756;9.192;2023-05-02T10:29:22;2.67;;;1.50;;
11539;SDS011;5826;54.756;9.192;2023-05-02T10:31:50;3.22;;;1.77;;
11539;SDS011;5826;54.756;9.192;2023-05-02T10:34:17;2.92;;;1.40;;
11539;SDS011;5826;54.756;9.192;2023-05-02T10:36:43;5.57;;;1.52;;
11539;SDS011;5826;54.756;9.192;2023-05-02T10:39:09;5.60;;;2.00;;
11539;SDS011;5826;54.756;9.192;2023-05-02T10:41:34;4.32;;;1.40;;
11539;SDS011;5826;54.756;9.192;2023-05-02T10:44:02;5.63;;;1.30;;
11539;SDS011;5826;54.756;9.192;2023-05-02T10:46:32;4.18;;;1.67;;
11539;SDS011;5826;54.756;9.192;2023-05-02T10:49:03;4.38;;;1.52;;
11539;SDS011;5826;54.756;9.192;2023-05-02T10:51:32;5.40;;;1.50;;
11539;SDS011;5826;54.756;9.192;2023-05-02T10:59:30;3.88;;;1.73;;
11539;SDS011;5826;54.756;9.192;2023-05-02T11:01:57;3.85;;;1.50;;
11539;SDS011;5826;54.756;9.192;2023-05-02T11:04:24;4.25;;;1.42;;
11539;SDS011;5826;54.756;9.192;2023-05-02T11:11:46;4.22;;;1.60;;
11539;SDS011;5826;54.756;9.192;2023-05-02T11:14:40;6.20;;;1.90;;
11539;SDS011;5826;54.756;9.192;2023-05-02T11:17:07;4.60;;;1.63;;
11539;SDS011;5826;54.756;9.192;2023-05-02T11:24:43;3.58;;;1.50;;
11539;SDS011;5826;54.756;9.192;2023-05-02T11:30:02;4.05;;;1.58;;
11539;SDS011;5826;54.756;9.192;2023-05-02T11:35:19;2.90;;;1.40;;
11539;SDS011;5826;54.756;9.192;2023-05-02T11:37:55;4.30;;;1.75;;
11539;SDS011;5826;54.756;9.192;2023-05-02T11:40:22;4.00;;;1.30;;
11539;SDS011;5826;54.756;9.192;2023-05-02T11:42:49;4.57;;;1.65;;
11539;SDS011;5826;54.756;9.192;2023-05-02T11:45:14;3.30;;;1.40;;
11539;SDS011;5826;54.756;9.192;2023-05-02T11:47:40;2.28;;;1.30;;
11539;SDS011;5826;54.756;9.192;2023-05-02T11:50:07;3.85;;;1.27;;
11539;SDS011;5826;54.756;9.192;2023-05-02T11:52:40;3.20;;;1.33;;
11539;SDS011;5826;54.756;9.192;2023-05-02T11:55:08;2.55;;;1.10;;
11539;SDS011;5826;54.756;9.192;2023-05-02T11:57:35;4.15;;;1.40;;
11539;SDS011;5826;54.756;9.192;2023-05-02T12:00:02;6.18;;;1.42;;
11539;SDS011;5826;54.756;9.192;2023-05-02T12:05:05;3.10;;;1.13;;
11539;SDS011;5826;54.756;9.192;2023-05-02T12:07:38;2.63;;;1.20;;
11539;SDS011;5826;54.756;9.192;2023-05-02T12:10:11;3.67;;;1.35;;
11539;SDS011;5826;54.756;9.192;2023-05-02T12:12:38;3.47;;;1.23;;
11539;SDS011;5826;54.756;9.192;2023-05-02T12:17:31;4.05;;;1.20;;
11539;SDS011;5826;54.756;9.192;2023-05-02T12:19:58;3.67;;;1.17;;
11539;SDS011;5826;54.756;9.192;2023-05-02T12:22:25;3.17;;;1.38;;
11539;SDS011;5826;54.756;9.192;2023-05-02T12:24:51;4.07;;;1.40;;
11539;SDS011;5826;54.756;9.192;2023-05-02T12:27:20;4.40;;;1.20;;
11539;SDS011;5826;54.756;9.192;2023-05-02T12:29:46;2.60;;;1.20;;
11539;SDS011;5826;54.756;9.192;2023-05-02T12:32:12;3.30;;;1.23;;
11539;SDS011;5826;54.756;9.192;2023-05-02T12:34:39;2.78;;;1.20;;
11539;SDS011;5826;54.756;9.192;2023-05-02T12:37:05;4.90;;;1.50;;
11539;SDS011;5826;54.756;9.192;2023-05-02T12:39:38;2.75;;;1.08;;
11539;SDS011;5826;54.756;9.192;2023-05-02T12:42:09;5.05;;;1.48;;
11539;SDS011;5826;54.756;9.192;2023-05-02T12:44:36;3.38;;;1.15;;
11539;SDS011;5826;54.756;9.192;2023-05-02T12:47:07;2.70;;;1.10;;
11539;SDS011;5826;54.756;9.192;2023-05-02T12:49:53;4.45;;;1.40;;
11539;SDS011;5826;54.756;9.192;2023-05-02T12:55:18;5.15;;;1.52;;
11539;SDS011;5826;54.756;9.192;2023-05-02T12:57:44;4.88;;;1.80;;
11539;SDS011;5826;54.756;9.192;2023-05-02T13:00:10;4.15;;;1.42;;
11539;SDS011;5826;54.756;9.192;2023-05-02T13:02:36;5.78;;;1.40;;
11539;SDS011;5826;54.756;9.192;2023-05-02T13:05:01;4.25;;;1.40;;
11539;SDS011;5826;54.756;9.192;2023-05-02T13:07:37;3.53;;;1.10;;
11539;SDS011;5826;54.756;9.192;2023-05-02T13:10:03;1.67;;;1.30;;
11539;SDS011;5826;54.756;9.192;2023-05-02T13:12:28;3.22;;;1.40;;
11539;SDS011;5826;54.756;9.192;2023-05-02T13:14:54;4.63;;;1.67;;
11539;SDS011;5826;54.756;9.192;2023-05-02T13:17:20;4.07;;;1.40;;
11539;SDS011;5826;54.756;9.192;2023-05-02T13:19:45;2.33;;;1.27;;
11539;SDS011;5826;54.756;9.192;2023-05-02T13:22:11;2.50;;;1.20;;
11539;SDS011;5826;54.756;9.192;2023-05-02T13:24:36;2.08;;;1.20;;
11539;SDS011;5826;54.756;9.192;2023-05-02T13:27:01;4.47;;;1.35;;
11539;SDS011;5826;54.756;9.192;2023-05-02T13:29:27;2.47;;;1.02;;
11539;SDS011;5826;54.756;9.192;2023-05-02T13:31:53;2.42;;;1.20;;
11539;SDS011;5826;54.756;9.192;2023-05-02T13:34:18;4.63;;;1.38;;
11539;SDS011;5826;54.756;9.192;2023-05-02T13:36:44;3.70;;;1.23;;
11539;SDS011;5826;54.756;9.192;2023-05-02T13:39:10;3.70;;;1.30;;
11539;SDS011;5826;54.756;9.192;2023-05-02T13:41:36;2.15;;;1.10;;
11539;SDS011;5826;54.756;9.192;2023-05-02T13:44:02;2.40;;;1.10;;
11539;SDS011;5826;54.756;9.192;2023-05-02T13:46:27;2.33;;;1.00;;
11539;SDS011;5826;54.756;9.192;2023-05-02T13:48:53;3.33;;;0.90;;
11539;SDS011;5826;54.756;9.192;2023-05-02T13:51:18;3.00;;;1.08;;
11539;SDS011;5826;54.756;9.192;2023-05-02T13:53:43;2.78;;;1.20;;
11539;SDS011;5826;54.756;9.192;2023-05-02T13:56:09;2.63;;;1.35;;
11539;SDS011;5826;54.756;9.192;2023-05-02T13:58:34;5.35;;;1.15;;
11539;SDS011;5826;54.756;9.192;2023-05-02T14:01:00;2.47;;;1.08;;
11539;SDS011;5826;54.756;9.192;2023-05-02T14:03:26;2.42;;;1.00;;
11539;SDS011;5826;54.756;9.192;2023-05-02T14:05:51;4.95;;;1.50;;
11539;SDS011;5826;54.756;9.192;2023-05-02T14:08:17;2.25;;;1.10;;
11539;SDS011;5826;54.756;9.192;2023-05-02T14:10:43;2.75;;;1.00;;
11539;SDS011;5826;54.756;9.192;2023-05-02T14:13:09;2.78;;;1.20;;
11539;SDS011;5826;54.756;9.192;2023-05-02T14:15:34;2.75;;;1.10;;
11539;SDS011;5826;54.756;9.192;2023-05-02T14:18:01;2.67;;;1.02;;
11539;SDS011;5826;54.756;9.192;2023-05-02T14:20:27;2.78;;;1.00;;
11539;SDS011;5826;54.756;9.192;2023-05-02T14:22:52;3.38;;;0.93;;
11539;SDS011;5826;54.756;9.192;2023-05-02T14:25:18;4.53;;;1.17;;
11539;SDS011;5826;54.756;9.192;2023-05-02T14:27:44;3.65;;;1.30;;
11539;SDS011;5826;54.756;9.192;2023-05-02T14:30:10;1.95;;;1.10;;
11539;SDS011;5826;54.756;9.192;2023-05-02T14:32:36;2.10;;;1.10;;
11539;SDS011;5826;54.756;9.192;2023-05-02T14:35:02;2.92;;;0.90;;
11539;SDS011;5826;54.756;9.192;2023-05-02T14:37:28;2.85;;;0.98;;
11539;SDS011;5826;54.756;9.192;2023-05-02T14:39:53;1.98;;;1.20;;
11539;SDS011;5826;54.756;9.192;2023-05-02T14:42:20;2.42;;;0.85;;
11539;SDS011;5826;54.756;9.192;2023-05-02T14:44:46;2.20;;;1.00;;
11539;SDS011;5826;54.756;9.192;2023-05-02T14:47:12;1.88;;;1.00;;
11539;SDS011;5826;54.756;9.192;2023-05-02T14:49:37;2.53;;;1.02;;
11539;SDS011;5826;54.756;9.192;2023-05-02T14:52:03;3.58;;;1.20;;
11539;SDS011;5826;54.756;9.192;2023-05-02T14:54:28;2.20;;;1.20;;
11539;SDS011;5826;54.756;9.192;2023-05-02T14:56:54;2.72;;;1.15;;
11539;SDS011;5826;54.756;9.192;2023-05-02T14:59:20;1.77;;;0.95;;
11539;SDS011;5826;54.756;9.192;2023-05-02T15:01:46;1.98;;;1.00;;
11539;SDS011;5826;54.756;9.192;2023-05-02T15:04:12;2.80;;;1.20;;
11539;SDS011;5826;54.756;9.192;2023-05-02T15:06:37;4.15;;;1.30;;
11539;SDS011;5826;54.756;9.192;2023-05-02T15:09:03;3.47;;;1.10;;
11539;SDS011;5826;54.756;9.192;2023-05-02T15:11:29;2.83;;;1.27;;
11539;SDS011;5826;54.756;9.192;2023-05-02T15:13:55;3.20;;;1.20;;
11539;SDS011;5826;54.756;9.192;2023-05-02T15:16:22;3.90;;;1.10;;
11539;SDS011;5826;54.756;9.192;2023-05-02T15:18:47;4.10;;;1.20;;
11539;SDS011;5826;54.756;9.192;2023-05-02T15:21:13;5.75;;;1.17;;
11539;SDS011;5826;54.756;9.192;2023-05-02T15:23:38;3.92;;;1.15;;
11539;SDS011;5826;54.756;9.192;2023-05-02T15:26:03;3.10;;;1.15;;
11539;SDS011;5826;54.756;9.192;2023-05-02T15:28:29;3.40;;;0.98;;
11539;SDS011;5826;54.756;9.192;2023-05-02T15:30:55;2.25;;;1.05;;
11539;SDS011;5826;54.756;9.192;2023-05-02T15:33:20;2.65;;;1.08;;
11539;SDS011;5826;54.756;9.192;2023-05-02T15:35:53;2.55;;;0.90;;
11539;SDS011;5826;54.756;9.192;2023-05-02T15:38:22;3.92;;;1.00;;
11539;SDS011;5826;54.756;9.192;2023-05-02T15:40:58;3.88;;;1.00;;
11539;SDS011;5826;54.756;9.192;2023-05-02T15:43:24;3.28;;;1.23;;
11539;SDS011;5826;54.756;9.192;2023-05-02T15:45:51;3.28;;;1.30;;
11539;SDS011;5826;54.756;9.192;2023-05-02T15:48:16;3.28;;;1.23;;
11539;SDS011;5826;54.756;9.192;2023-05-02T15:50:42;5.35;;;1.40;;
11539;SDS011;5826;54.756;9.192;2023-05-02T15:53:07;4.57;;;1.10;;